sensor_id;sensor_type;location;lat;lon;timestamp;temperature;humidity
37412;DHT22;23278;52.110;6.050;2023-05-10T00:00:28;14.40;99.90
37412;DHT22;23278;52.110;6.050;2023-05-10T00:02:54;14.40;99.90
37412;DHT22;23278;52.110;6.050;2023-05-10T00:05:20;14.40;99.90
37412;DHT22;23278;52.110;6.050;2023-05-10T00:07:46;14.40;99.90
37412;DHT22;23278;52.110;6.050;2023-05-10T00:10:12;14.40;99.90
37412;DHT22;23278;52.110;6.050;2023-05-10T00:12:38;14.30;99.90
37412;DHT22;23278;52.110;6.050;2023-05-10T00:15:04;14.30;99.90
37412;DHT22;23278;52.110;6.050;2023-05-10T00:17:30;14.40;99.90
37412;DHT22;23278;52.110;6.050;2023-05-10T00:19:57;14.40;99.90
37412;DHT22;23278;52.110;6.050;2023-05-10T00:22:23;14.40;99.90
37412;DHT22;23278;52.110;6.050;2023-05-10T00:24:49;14.40;99.90
37412;DHT22;23278;52.110;6.050;2023-05-10T00:27:15;14.40;99.90
37412;DHT22;23278;52.110;6.050;2023-05-10T00:29:41;14.50;99.90
37412;DHT22;23278;52.110;6.050;2023-05-10T00:32:08;14.50;99.90
37412;DHT22;23278;52.110;6.050;2023-05-10T00:34:34;14.50;99.90
37412;DHT22;23278;52.110;6.050;2023-05-10T00:37:00;14.50;99.90
37412;DHT22;23278;52.110;6.050;2023-05-10T00:39:26;14.50;99.90
37412;DHT22;23278;52.110;6.050;2023-05-10T00:41:54;14.50;99.90
37412;DHT22;23278;52.110;6.050;2023-05-10T00:44:20;14.50;99.90
37412;DHT22;23278;52.110;6.050;2023-05-10T00:46:48;14.50;99.90
37412;DHT22;23278;52.110;6.050;2023-05-10T00:49:15;14.50;99.90
37412;DHT22;23278;52.110;6.050;2023-05-10T00:51:42;14.50;99.90
37412;DHT22;23278;52.110;6.050;2023-05-10T00:54:11;14.50;99.90
37412;DHT22;23278;52.110;6.050;2023-05-10T00:56:37;14.40;99.90
37412;DHT22;23278;52.110;6.050;2023-05-10T00:59:03;14.40;99.90
37412;DHT22;23278;52.110;6.050;2023-05-10T01:01:29;14.40;99.90
37412;DHT22;23278;52.110;6.050;2023-05-10T01:03:56;14.40;99.90
37412;DHT22;23278;52.110;6.050;2023-05-10T01:06:22;14.40;99.90
37412;DHT22;23278;52.110;6.050;2023-05-10T01:08:48;14.40;99.90
37412;DHT22;23278;52.110;6.050;2023-05-10T01:11:14;14.50;99.90
37412;DHT22;23278;52.110;6.050;2023-05-10T01:13:42;14.50;99.90
37412;DHT22;23278;52.110;6.050;2023-05-10T01:16:10;14.50;99.90
37412;DHT22;23278;52.110;6.050;2023-05-10T01:18:39;14.50;99.90
37412;DHT22;23278;52.110;6.050;2023-05-10T01:29:18;14.50;99.90
37412;DHT22;23278;52.110;6.050;2023-05-10T01:34:35;14.60;99.90
37412;DHT22;23278;52.110;6.050;2023-05-10T01:37:13;14.60;99.90
37412;DHT22;23278;52.110;6.050;2023-05-10T01:39:48;14.60;99.90
37412;DHT22;23278;52.110;6.050;2023-05-10T01:42:21;14.60;99.90
37412;DHT22;23278;52.110;6.050;2023-05-10T01:45:13;14.70;99.90
37412;DHT22;23278;52.110;6.050;2023-05-10T01:47:43;14.70;99.90
37412;DHT22;23278;52.110;6.050;2023-05-10T01:50:17;14.70;99.90
37412;DHT22;23278;52.110;6.050;2023-05-10T01:52:49;14.70;99.90
37412;DHT22;23278;52.110;6.050;2023-05-10T01:55:20;14.70;99.90
37412;DHT22;23278;52.110;6.050;2023-05-10T01:57:53;14.70;99.90
37412;DHT22;23278;52.110;6.050;2023-05-10T02:00:22;14.70;99.90
37412;DHT22;23278;52.110;6.050;2023-05-10T02:02:52;14.70;99.90
37412;DHT22;23278;52.110;6.050;2023-05-10T02:05:19;14.70;99.90
37412;DHT22;23278;52.110;6.050;2023-05-10T02:07:47;14.70;99.90
37412;DHT22;23278;52.110;6.050;2023-05-10T02:10:14;14.70;99.90
37412;DHT22;23278;52.110;6.050;2023-05-10T02:12:43;14.70;99.90
37412;DHT22;23278;52.110;6.050;2023-05-10T02:15:12;14.70;99.90
37412;DHT22;23278;52.110;6.050;2023-05-10T02:17:41;14.60;99.90
37412;DHT22;23278;52.110;6.050;2023-05-10T02:20:08;14.70;99.90
37412;DHT22;23278;52.110;6.050;2023-05-10T02:22:36;14.60;99.90
37412;DHT22;23278;52.110;6.050;2023-05-10T02:25:04;14.60;99.90
37412;DHT22;23278;52.110;6.050;2023-05-10T02:27:30;14.60;99.90
37412;DHT22;23278;52.110;6.050;2023-05-10T02:29:57;14.60;99.90
37412;DHT22;23278;52.110;6.050;2023-05-10T02:32:26;14.60;99.90
37412;DHT22;23278;52.110;6.050;2023-05-10T02:34:53;14.60;99.90
37412;DHT22;23278;52.110;6.050;2023-05-10T02:37:21;14.60;99.90
37412;DHT22;23278;52.110;6.050;2023-05-10T02:39:49;14.60;99.90
37412;DHT22;23278;52.110;6.050;2023-05-10T02:42:26;14.70;99.90
37412;DHT22;23278;52.110;6.050;2023-05-10T02:44:57;14.60;99.90
37412;DHT22;23278;52.110;6.050;2023-05-10T02:47:25;14.60;99.90
37412;DHT22;23278;52.110;6.050;2023-05-10T02:49:51;14.60;99.90
37412;DHT22;23278;52.110;6.050;2023-05-10T02:52:23;14.60;99.90
37412;DHT22;23278;52.110;6.050;2023-05-10T02:54:52;14.60;99.90
37412;DHT22;23278;52.110;6.050;2023-05-10T02:57:26;14.60;99.90
37412;DHT22;23278;52.110;6.050;2023-05-10T02:59:53;14.60;99.90
37412;DHT22;23278;52.110;6.050;2023-05-10T03:02:20;14.60;99.90
37412;DHT22;23278;52.110;6.050;2023-05-10T03:04:46;14.60;99.90
37412;DHT22;23278;52.110;6.050;2023-05-10T03:07:13;14.60;99.90
37412;DHT22;23278;52.110;6.050;2023-05-10T03:09:40;14.60;99.90
37412;DHT22;23278;52.110;6.050;2023-05-10T03:12:27;14.60;99.90
37412;DHT22;23278;52.110;6.050;2023-05-10T03:18:10;14.50;99.90
37412;DHT22;23278;52.110;6.050;2023-05-10T03:20:47;14.50;99.90
37412;DHT22;23278;52.110;6.050;2023-05-10T03:25:59;14.50;99.90
37412;DHT22;23278;52.110;6.050;2023-05-10T03:28:26;14.40;99.90
37412;DHT22;23278;52.110;6.050;2023-05-10T03:30:54;14.40;99.90
37412;DHT22;23278;52.110;6.050;2023-05-10T03:33:20;14.40;99.90
37412;DHT22;23278;52.110;6.050;2023-05-10T03:35:46;14.40;99.90
37412;DHT22;23278;52.110;6.050;2023-05-10T03:38:13;14.50;99.90
37412;DHT22;23278;52.110;6.050;2023-05-10T03:40:39;14.50;99.90
37412;DHT22;23278;52.110;6.050;2023-05-10T03:43:06;14.40;99.90
37412;DHT22;23278;52.110;6.050;2023-05-10T03:45:33;14.50;99.90
37412;DHT22;23278;52.110;6.050;2023-05-10T03:47:59;14.50;99.90
37412;DHT22;23278;52.110;6.050;2023-05-10T03:50:25;14.50;99.90
37412;DHT22;23278;52.110;6.050;2023-05-10T03:52:52;14.50;99.90
37412;DHT22;23278;52.110;6.050;2023-05-10T03:55:18;14.50;99.90
37412;DHT22;23278;52.110;6.050;2023-05-10T03:57:45;14.50;99.90
37412;DHT22;23278;52.110;6.050;2023-05-10T04:00:11;14.50;99.90
37412;DHT22;23278;52.110;6.050;2023-05-10T04:02:41;14.50;99.90
37412;DHT22;23278;52.110;6.050;2023-05-10T04:05:10;14.40;99.90
37412;DHT22;23278;52.110;6.050;2023-05-10T04:07:36;14.40;99.90
37412;DHT22;23278;52.110;6.050;2023-05-10T04:10:02;14.40;99.90
37412;DHT22;23278;52.110;6.050;2023-05-10T04:12:27;14.30;99.90
37412;DHT22;23278;52.110;6.050;2023-05-10T04:14:53;14.30;99.90
37412;DHT22;23278;52.110;6.050;2023-05-10T04:17:19;14.30;99.90
37412;DHT22;23278;52.110;6.050;2023-05-10T04:19:45;14.40;99.90
37412;DHT22;23278;52.110;6.050;2023-05-10T04:22:11;14.30;99.90
37412;DHT22;23278;52.110;6.050;2023-05-10T04:24:37;14.30;99.90
37412;DHT22;23278;52.110;6.050;2023-05-10T04:27:03;14.30;99.90
37412;DHT22;23278;52.110;6.050;2023-05-10T04:29:29;14.30;99.90
37412;DHT22;23278;52.110;6.050;2023-05-10T04:31:55;14.30;99.90
37412;DHT22;23278;52.110;6.050;2023-05-10T04:34:22;14.30;99.90
37412;DHT22;23278;52.110;6.050;2023-05-10T04:36:48;14.30;99.90
37412;DHT22;23278;52.110;6.050;2023-05-10T04:39:14;14.30;99.90
37412;DHT22;23278;52.110;6.050;2023-05-10T04:41:40;14.40;99.90
37412;DHT22;23278;52.110;6.050;2023-05-10T04:44:06;14.30;99.90
37412;DHT22;23278;52.110;6.050;2023-05-10T04:46:32;14.30;99.90
37412;DHT22;23278;52.110;6.050;2023-05-10T04:48:58;14.30;99.90
37412;DHT22;23278;52.110;6.050;2023-05-10T04:51:24;14.30;99.90
37412;DHT22;23278;52.110;6.050;2023-05-10T04:53:50;14.30;99.90
37412;DHT22;23278;52.110;6.050;2023-05-10T04:56:16;14.30;99.90
37412;DHT22;23278;52.110;6.050;2023-05-10T04:58:42;14.30;99.90
37412;DHT22;23278;52.110;6.050;2023-05-10T05:01:08;14.30;99.90
37412;DHT22;23278;52.110;6.050;2023-05-10T05:03:36;14.30;99.90
37412;DHT22;23278;52.110;6.050;2023-05-10T05:06:02;14.30;99.90
37412;DHT22;23278;52.110;6.050;2023-05-10T05:08:29;14.30;99.90
37412;DHT22;23278;52.110;6.050;2023-05-10T05:10:54;14.30;99.90
37412;DHT22;23278;52.110;6.050;2023-05-10T05:13:20;14.30;99.90
37412;DHT22;23278;52.110;6.050;2023-05-10T05:15:46;14.30;99.90
37412;DHT22;23278;52.110;6.050;2023-05-10T05:18:13;14.30;99.90
37412;DHT22;23278;52.110;6.050;2023-05-10T05:20:38;14.30;99.90
37412;DHT22;23278;52.110;6.050;2023-05-10T05:23:04;14.30;99.90
37412;DHT22;23278;52.110;6.050;2023-05-10T05:25:30;14.30;99.90
37412;DHT22;23278;52.110;6.050;2023-05-10T05:27:56;14.30;99.90
37412;DHT22;23278;52.110;6.050;2023-05-10T05:30:22;14.40;99.90
37412;DHT22;23278;52.110;6.050;2023-05-10T05:32:48;14.40;99.90
37412;DHT22;23278;52.110;6.050;2023-05-10T05:35:14;14.40;99.90
37412;DHT22;23278;52.110;6.050;2023-05-10T05:37:40;14.50;99.90
37412;DHT22;23278;52.110;6.050;2023-05-10T05:40:07;14.50;99.90
37412;DHT22;23278;52.110;6.050;2023-05-10T05:42:33;14.50;99.90
37412;DHT22;23278;52.110;6.050;2023-05-10T05:44:59;14.60;99.90
37412;DHT22;23278;52.110;6.050;2023-05-10T05:47:25;14.60;99.90
37412;DHT22;23278;52.110;6.050;2023-05-10T05:49:50;14.60;99.90
37412;DHT22;23278;52.110;6.050;2023-05-10T05:52:16;14.60;99.90
37412;DHT22;23278;52.110;6.050;2023-05-10T05:54:43;14.60;99.90
37412;DHT22;23278;52.110;6.050;2023-05-10T05:57:09;14.70;99.90
37412;DHT22;23278;52.110;6.050;2023-05-10T05:59:35;14.70;99.90
37412;DHT22;23278;52.110;6.050;2023-05-10T06:02:01;14.90;99.90
37412;DHT22;23278;52.110;6.050;2023-05-10T06:04:27;15.00;99.90
37412;DHT22;23278;52.110;6.050;2023-05-10T06:06:53;15.10;99.90
37412;DHT22;23278;52.110;6.050;2023-05-10T06:09:19;15.30;99.90
37412;DHT22;23278;52.110;6.050;2023-05-10T06:11:45;15.50;99.90
37412;DHT22;23278;52.110;6.050;2023-05-10T06:14:11;15.60;99.90
37412;DHT22;23278;52.110;6.050;2023-05-10T06:16:37;15.50;99.90
37412;DHT22;23278;52.110;6.050;2023-05-10T06:19:03;15.40;99.90
37412;DHT22;23278;52.110;6.050;2023-05-10T06:21:29;15.30;99.90
37412;DHT22;23278;52.110;6.050;2023-05-10T06:23:55;15.30;99.90
37412;DHT22;23278;52.110;6.050;2023-05-10T06:26:22;15.30;99.90
37412;DHT22;23278;52.110;6.050;2023-05-10T06:28:47;15.30;99.90
37412;DHT22;23278;52.110;6.050;2023-05-10T06:31:13;15.30;99.90
37412;DHT22;23278;52.110;6.050;2023-05-10T06:33:39;15.30;99.90
37412;DHT22;23278;52.110;6.050;2023-05-10T06:36:06;15.30;99.90
37412;DHT22;23278;52.110;6.050;2023-05-10T06:38:32;15.30;99.90
37412;DHT22;23278;52.110;6.050;2023-05-10T06:40:58;15.40;99.90
37412;DHT22;23278;52.110;6.050;2023-05-10T06:43:24;15.40;99.90
37412;DHT22;23278;52.110;6.050;2023-05-10T06:45:51;15.40;99.90
37412;DHT22;23278;52.110;6.050;2023-05-10T06:48:17;15.40;99.90
37412;DHT22;23278;52.110;6.050;2023-05-10T06:50:43;15.40;99.90
37412;DHT22;23278;52.110;6.050;2023-05-10T06:53:10;15.40;99.90
37412;DHT22;23278;52.110;6.050;2023-05-10T06:55:37;15.40;99.90
37412;DHT22;23278;52.110;6.050;2023-05-10T06:58:03;15.40;99.90
37412;DHT22;23278;52.110;6.050;2023-05-10T07:00:29;15.40;99.90
37412;DHT22;23278;52.110;6.050;2023-05-10T07:02:55;15.40;99.90
37412;DHT22;23278;52.110;6.050;2023-05-10T07:05:21;15.50;99.90
37412;DHT22;23278;52.110;6.050;2023-05-10T07:07:47;15.50;99.90
37412;DHT22;23278;52.110;6.050;2023-05-10T07:10:13;15.50;99.90
37412;DHT22;23278;52.110;6.050;2023-05-10T07:12:40;15.50;99.90
37412;DHT22;23278;52.110;6.050;2023-05-10T07:15:06;15.50;99.90
37412;DHT22;23278;52.110;6.050;2023-05-10T07:17:32;15.50;99.90
37412;DHT22;23278;52.110;6.050;2023-05-10T07:19:59;15.40;99.90
37412;DHT22;23278;52.110;6.050;2023-05-10T07:22:26;15.30;99.90
37412;DHT22;23278;52.110;6.050;2023-05-10T07:24:52;15.20;99.90
37412;DHT22;23278;52.110;6.050;2023-05-10T07:27:18;15.10;99.90
37412;DHT22;23278;52.110;6.050;2023-05-10T07:29:44;15.10;99.90
37412;DHT22;23278;52.110;6.050;2023-05-10T07:32:10;15.20;99.90
37412;DHT22;23278;52.110;6.050;2023-05-10T07:34:36;15.20;99.90
37412;DHT22;23278;52.110;6.050;2023-05-10T07:37:02;15.20;99.90
37412;DHT22;23278;52.110;6.050;2023-05-10T07:39:28;15.30;99.90
37412;DHT22;23278;52.110;6.050;2023-05-10T07:41:55;15.20;99.90
37412;DHT22;23278;52.110;6.050;2023-05-10T07:44:21;15.20;99.90
37412;DHT22;23278;52.110;6.050;2023-05-10T07:46:47;15.10;99.90
37412;DHT22;23278;52.110;6.050;2023-05-10T07:49:14;15.20;99.90
37412;DHT22;23278;52.110;6.050;2023-05-10T07:51:40;15.20;99.90
37412;DHT22;23278;52.110;6.050;2023-05-10T07:54:06;15.20;99.90
37412;DHT22;23278;52.110;6.050;2023-05-10T07:56:33;15.30;99.90
37412;DHT22;23278;52.110;6.050;2023-05-10T07:59:00;15.30;99.90
37412;DHT22;23278;52.110;6.050;2023-05-10T08:01:30;15.40;99.90
37412;DHT22;23278;52.110;6.050;2023-05-10T08:03:57;15.40;99.90
37412;DHT22;23278;52.110;6.050;2023-05-10T08:06:23;15.50;99.90
37412;DHT22;23278;52.110;6.050;2023-05-10T08:08:49;15.50;99.90
37412;DHT22;23278;52.110;6.050;2023-05-10T08:11:17;15.50;99.90
37412;DHT22;23278;52.110;6.050;2023-05-10T08:13:44;15.60;99.90
37412;DHT22;23278;52.110;6.050;2023-05-10T08:16:10;15.70;99.90
37412;DHT22;23278;52.110;6.050;2023-05-10T08:18:37;15.90;99.90
37412;DHT22;23278;52.110;6.050;2023-05-10T08:21:04;16.00;99.90
37412;DHT22;23278;52.110;6.050;2023-05-10T08:23:30;16.10;99.90
37412;DHT22;23278;52.110;6.050;2023-05-10T08:25:56;16.20;99.90
37412;DHT22;23278;52.110;6.050;2023-05-10T08:28:22;16.30;99.90
37412;DHT22;23278;52.110;6.050;2023-05-10T08:30:50;16.40;99.90
37412;DHT22;23278;52.110;6.050;2023-05-10T08:33:17;16.50;99.90
37412;DHT22;23278;52.110;6.050;2023-05-10T08:35:43;16.60;99.90
37412;DHT22;23278;52.110;6.050;2023-05-10T08:38:09;17.00;99.90
37412;DHT22;23278;52.110;6.050;2023-05-10T08:40:37;17.30;99.90
37412;DHT22;23278;52.110;6.050;2023-05-10T08:43:08;17.50;99.90
37412;DHT22;23278;52.110;6.050;2023-05-10T08:45:39;17.60;99.90
37412;DHT22;23278;52.110;6.050;2023-05-10T08:48:07;17.40;99.90
37412;DHT22;23278;52.110;6.050;2023-05-10T08:50:38;17.20;99.90
37412;DHT22;23278;52.110;6.050;2023-05-10T08:53:09;17.00;99.90
37412;DHT22;23278;52.110;6.050;2023-05-10T08:55:35;16.90;99.90
37412;DHT22;23278;52.110;6.050;2023-05-10T08:58:08;16.80;99.90
37412;DHT22;23278;52.110;6.050;2023-05-10T09:00:36;16.70;99.90
37412;DHT22;23278;52.110;6.050;2023-05-10T09:03:05;16.60;99.90
37412;DHT22;23278;52.110;6.050;2023-05-10T09:05:32;16.60;99.90
37412;DHT22;23278;52.110;6.050;2023-05-10T09:07:58;16.80;99.90
37412;DHT22;23278;52.110;6.050;2023-05-10T09:10:26;17.00;99.90
37412;DHT22;23278;52.110;6.050;2023-05-10T09:12:53;17.10;99.90
37412;DHT22;23278;52.110;6.050;2023-05-10T09:15:21;17.10;99.90
37412;DHT22;23278;52.110;6.050;2023-05-10T09:17:49;17.20;99.90
37412;DHT22;23278;52.110;6.050;2023-05-10T09:20:15;17.20;99.90
37412;DHT22;23278;52.110;6.050;2023-05-10T09:22:43;17.30;99.90
37412;DHT22;23278;52.110;6.050;2023-05-10T09:25:14;17.30;99.90
37412;DHT22;23278;52.110;6.050;2023-05-10T09:27:44;17.50;99.90
37412;DHT22;23278;52.110;6.050;2023-05-10T09:30:18;17.60;99.90
37412;DHT22;23278;52.110;6.050;2023-05-10T09:32:50;17.70;99.90
37412;DHT22;23278;52.110;6.050;2023-05-10T09:35:17;17.80;99.90
37412;DHT22;23278;52.110;6.050;2023-05-10T09:37:46;17.90;99.90
37412;DHT22;23278;52.110;6.050;2023-05-10T09:40:15;18.10;99.90
37412;DHT22;23278;52.110;6.050;2023-05-10T09:42:44;18.20;99.70
37412;DHT22;23278;52.110;6.050;2023-05-10T09:45:16;18.30;99.60
37412;DHT22;23278;52.110;6.050;2023-05-10T09:47:42;18.30;99.20
37412;DHT22;23278;52.110;6.050;2023-05-10T09:50:08;18.10;99.10
37412;DHT22;23278;52.110;6.050;2023-05-10T09:52:53;17.90;99.40
37412;DHT22;23278;52.110;6.050;2023-05-10T09:55:21;17.80;99.60
37412;DHT22;23278;52.110;6.050;2023-05-10T09:57:48;17.80;99.50
37412;DHT22;23278;52.110;6.050;2023-05-10T10:00:19;17.90;99.40
37412;DHT22;23278;52.110;6.050;2023-05-10T10:02:47;18.10;99.20
37412;DHT22;23278;52.110;6.050;2023-05-10T10:05:14;18.30;98.80
37412;DHT22;23278;52.110;6.050;2023-05-10T10:07:40;18.40;98.40
37412;DHT22;23278;52.110;6.050;2023-05-10T10:10:07;18.50;98.20
37412;DHT22;23278;52.110;6.050;2023-05-10T10:12:38;18.40;98.30
37412;DHT22;23278;52.110;6.050;2023-05-10T10:15:04;18.50;98.30
37412;DHT22;23278;52.110;6.050;2023-05-10T10:17:31;18.50;98.10
37412;DHT22;23278;52.110;6.050;2023-05-10T10:19:58;18.70;97.70
37412;DHT22;23278;52.110;6.050;2023-05-10T10:22:25;19.10;96.90
37412;DHT22;23278;52.110;6.050;2023-05-10T10:24:51;19.40;96.20
37412;DHT22;23278;52.110;6.050;2023-05-10T10:33:06;19.40;95.20
37412;DHT22;23278;52.110;6.050;2023-05-10T10:35:36;19.20;95.60
37412;DHT22;23278;52.110;6.050;2023-05-10T10:38:03;18.90;96.20
37412;DHT22;23278;52.110;6.050;2023-05-10T10:40:31;18.70;96.70
37412;DHT22;23278;52.110;6.050;2023-05-10T10:42:57;18.50;97.00
37412;DHT22;23278;52.110;6.050;2023-05-10T10:45:24;18.50;97.20
37412;DHT22;23278;52.110;6.050;2023-05-10T10:48:23;18.50;97.30
37412;DHT22;23278;52.110;6.050;2023-05-10T10:50:56;18.40;97.50
37412;DHT22;23278;52.110;6.050;2023-05-10T10:53:26;18.30;97.70
37412;DHT22;23278;52.110;6.050;2023-05-10T10:56:11;18.20;97.70
37412;DHT22;23278;52.110;6.050;2023-05-10T10:58:39;18.00;97.70
37412;DHT22;23278;52.110;6.050;2023-05-10T11:01:17;17.80;97.60
37412;DHT22;23278;52.110;6.050;2023-05-10T11:06:41;17.70;97.60
37412;DHT22;23278;52.110;6.050;2023-05-10T11:09:11;17.80;97.50
37412;DHT22;23278;52.110;6.050;2023-05-10T11:11:54;17.90;97.20
37412;DHT22;23278;52.110;6.050;2023-05-10T11:14:24;18.10;96.80
37412;DHT22;23278;52.110;6.050;2023-05-10T11:16:51;18.40;96.60
37412;DHT22;23278;52.110;6.050;2023-05-10T11:19:18;18.60;96.00
37412;DHT22;23278;52.110;6.050;2023-05-10T11:24:15;19.40;95.20
37412;DHT22;23278;52.110;6.050;2023-05-10T11:26:42;20.10;94.40
37412;DHT22;23278;52.110;6.050;2023-05-10T11:29:08;21.00;92.90
37412;DHT22;23278;52.110;6.050;2023-05-10T11:31:35;21.80;91.20
37412;DHT22;23278;52.110;6.050;2023-05-10T11:34:07;22.00;89.90
37412;DHT22;23278;52.110;6.050;2023-05-10T11:36:34;22.00;90.10
37412;DHT22;23278;52.110;6.050;2023-05-10T11:39:01;22.00;88.70
37412;DHT22;23278;52.110;6.050;2023-05-10T11:41:30;21.80;89.40
37412;DHT22;23278;52.110;6.050;2023-05-10T11:43:57;21.70;88.90
37412;DHT22;23278;52.110;6.050;2023-05-10T11:46:25;21.50;89.10
37412;DHT22;23278;52.110;6.050;2023-05-10T11:48:59;21.40;88.10
37412;DHT22;23278;52.110;6.050;2023-05-10T11:51:27;21.40;88.40
37412;DHT22;23278;52.110;6.050;2023-05-10T11:53:55;21.50;87.20
37412;DHT22;23278;52.110;6.050;2023-05-10T11:56:21;21.90;86.10
37412;DHT22;23278;52.110;6.050;2023-05-10T11:58:56;22.20;83.70
37412;DHT22;23278;52.110;6.050;2023-05-10T12:01:24;22.60;81.70
37412;DHT22;23278;52.110;6.050;2023-05-10T12:03:51;22.90;79.90
37412;DHT22;23278;52.110;6.050;2023-05-10T12:06:21;23.20;79.00
37412;DHT22;23278;52.110;6.050;2023-05-10T12:08:48;23.40;77.30
37412;DHT22;23278;52.110;6.050;2023-05-10T12:11:18;23.40;76.60
37412;DHT22;23278;52.110;6.050;2023-05-10T12:13:45;23.30;76.20
37412;DHT22;23278;52.110;6.050;2023-05-10T12:16:19;23.20;76.20
37412;DHT22;23278;52.110;6.050;2023-05-10T12:18:50;23.00;75.70
37412;DHT22;23278;52.110;6.050;2023-05-10T12:21:20;22.80;74.70
37412;DHT22;23278;52.110;6.050;2023-05-10T12:23:49;22.70;74.30
37412;DHT22;23278;52.110;6.050;2023-05-10T12:26:15;22.90;73.90
37412;DHT22;23278;52.110;6.050;2023-05-10T12:28:41;23.40;73.10
37412;DHT22;23278;52.110;6.050;2023-05-10T12:31:07;23.90;71.10
37412;DHT22;23278;52.110;6.050;2023-05-10T12:33:43;24.30;67.70
37412;DHT22;23278;52.110;6.050;2023-05-10T12:36:14;25.10;66.40
37412;DHT22;23278;52.110;6.050;2023-05-10T12:38:42;25.60;62.70
37412;DHT22;23278;52.110;6.050;2023-05-10T12:41:14;25.30;62.70
37412;DHT22;23278;52.110;6.050;2023-05-10T12:43:41;24.80;64.00
37412;DHT22;23278;52.110;6.050;2023-05-10T12:46:16;24.10;64.90
37412;DHT22;23278;52.110;6.050;2023-05-10T12:48:44;23.30;66.90
37412;DHT22;23278;52.110;6.050;2023-05-10T12:51:10;22.70;68.80
37412;DHT22;23278;52.110;6.050;2023-05-10T12:53:39;22.20;70.30
37412;DHT22;23278;52.110;6.050;2023-05-10T12:56:06;21.80;71.70
37412;DHT22;23278;52.110;6.050;2023-05-10T12:58:32;21.50;72.70
37412;DHT22;23278;52.110;6.050;2023-05-10T13:01:01;21.40;74.00
37412;DHT22;23278;52.110;6.050;2023-05-10T13:03:27;21.40;74.20
37412;DHT22;23278;52.110;6.050;2023-05-10T13:05:53;21.50;74.60
37412;DHT22;23278;52.110;6.050;2023-05-10T13:08:19;21.50;74.40
37412;DHT22;23278;52.110;6.050;2023-05-10T13:10:45;21.60;74.60
37412;DHT22;23278;52.110;6.050;2023-05-10T13:13:11;21.70;74.00
37412;DHT22;23278;52.110;6.050;2023-05-10T13:15:37;21.80;73.90
37412;DHT22;23278;52.110;6.050;2023-05-10T13:18:03;21.70;73.80
37412;DHT22;23278;52.110;6.050;2023-05-10T13:20:29;21.70;74.10
37412;DHT22;23278;52.110;6.050;2023-05-10T13:22:55;21.70;74.60
37412;DHT22;23278;52.110;6.050;2023-05-10T13:25:21;21.80;74.60
37412;DHT22;23278;52.110;6.050;2023-05-10T13:27:47;21.90;73.50
37412;DHT22;23278;52.110;6.050;2023-05-10T13:30:13;22.30;72.90
37412;DHT22;23278;52.110;6.050;2023-05-10T13:32:39;22.60;72.40
37412;DHT22;23278;52.110;6.050;2023-05-10T13:35:06;22.80;72.10
37412;DHT22;23278;52.110;6.050;2023-05-10T13:37:32;23.00;72.30
37412;DHT22;23278;52.110;6.050;2023-05-10T13:40:01;23.30;71.50
37412;DHT22;23278;52.110;6.050;2023-05-10T13:42:28;23.50;70.40
37412;DHT22;23278;52.110;6.050;2023-05-10T13:44:54;23.80;69.70
37412;DHT22;23278;52.110;6.050;2023-05-10T13:47:20;24.20;68.10
37412;DHT22;23278;52.110;6.050;2023-05-10T13:49:47;24.70;66.90
37412;DHT22;23278;52.110;6.050;2023-05-10T13:52:13;25.30;65.10
37412;DHT22;23278;52.110;6.050;2023-05-10T13:54:39;25.50;64.70
37412;DHT22;23278;52.110;6.050;2023-05-10T13:57:05;25.80;62.30
37412;DHT22;23278;52.110;6.050;2023-05-10T13:59:32;25.90;62.60
37412;DHT22;23278;52.110;6.050;2023-05-10T14:01:59;25.70;62.90
37412;DHT22;23278;52.110;6.050;2023-05-10T14:04:25;26.00;62.50
37412;DHT22;23278;52.110;6.050;2023-05-10T14:06:51;26.90;60.20
37412;DHT22;23278;52.110;6.050;2023-05-10T14:09:18;27.10;59.60
37412;DHT22;23278;52.110;6.050;2023-05-10T14:11:45;27.40;57.90
37412;DHT22;23278;52.110;6.050;2023-05-10T14:14:11;27.50;56.30
37412;DHT22;23278;52.110;6.050;2023-05-10T14:16:41;29.70;53.60
37412;DHT22;23278;52.110;6.050;2023-05-10T14:19:07;32.20;48.90
37412;DHT22;23278;52.110;6.050;2023-05-10T14:21:33;31.90;47.00
37412;DHT22;23278;52.110;6.050;2023-05-10T14:23:59;30.70;47.50
37412;DHT22;23278;52.110;6.050;2023-05-10T14:26:25;29.30;49.30
37412;DHT22;23278;52.110;6.050;2023-05-10T14:28:51;28.00;51.90
37412;DHT22;23278;52.110;6.050;2023-05-10T14:31:17;27.10;53.80
37412;DHT22;23278;52.110;6.050;2023-05-10T14:33:47;26.60;54.80
37412;DHT22;23278;52.110;6.050;2023-05-10T14:36:13;27.10;53.90
37412;DHT22;23278;52.110;6.050;2023-05-10T14:38:40;27.10;53.30
37412;DHT22;23278;52.110;6.050;2023-05-10T14:41:06;26.70;54.70
37412;DHT22;23278;52.110;6.050;2023-05-10T14:43:32;26.10;55.00
37412;DHT22;23278;52.110;6.050;2023-05-10T14:45:59;25.50;56.40
37412;DHT22;23278;52.110;6.050;2023-05-10T14:48:25;24.90;57.60
37412;DHT22;23278;52.110;6.050;2023-05-10T14:50:51;24.10;59.10
37412;DHT22;23278;52.110;6.050;2023-05-10T14:53:18;23.40;61.80
37412;DHT22;23278;52.110;6.050;2023-05-10T14:55:44;22.60;64.30
37412;DHT22;23278;52.110;6.050;2023-05-10T14:58:10;21.80;66.10
37412;DHT22;23278;52.110;6.050;2023-05-10T15:00:36;21.00;68.10
37412;DHT22;23278;52.110;6.050;2023-05-10T15:03:02;20.40;70.40
37412;DHT22;23278;52.110;6.050;2023-05-10T15:05:29;19.90;72.80
37412;DHT22;23278;52.110;6.050;2023-05-10T15:07:55;19.40;75.10
37412;DHT22;23278;52.110;6.050;2023-05-10T15:10:21;19.10;76.90
37412;DHT22;23278;52.110;6.050;2023-05-10T15:12:47;18.90;78.70
37412;DHT22;23278;52.110;6.050;2023-05-10T15:15:13;18.70;80.60
37412;DHT22;23278;52.110;6.050;2023-05-10T15:17:39;18.50;81.30
37412;DHT22;23278;52.110;6.050;2023-05-10T15:20:06;18.40;83.00
37412;DHT22;23278;52.110;6.050;2023-05-10T15:22:32;18.30;84.50
37412;DHT22;23278;52.110;6.050;2023-05-10T15:24:58;18.30;85.70
37412;DHT22;23278;52.110;6.050;2023-05-10T15:27:25;18.30;88.10
37412;DHT22;23278;52.110;6.050;2023-05-10T15:29:52;18.20;90.00
37412;DHT22;23278;52.110;6.050;2023-05-10T15:32:18;18.00;91.20
37412;DHT22;23278;52.110;6.050;2023-05-10T15:34:44;17.90;92.50
37412;DHT22;23278;52.110;6.050;2023-05-10T15:37:10;17.80;93.90
37412;DHT22;23278;52.110;6.050;2023-05-10T15:39:36;17.70;95.70
37412;DHT22;23278;52.110;6.050;2023-05-10T15:42:02;17.70;96.80
37412;DHT22;23278;52.110;6.050;2023-05-10T15:44:29;17.50;98.20
37412;DHT22;23278;52.110;6.050;2023-05-10T15:46:55;17.30;99.40
37412;DHT22;23278;52.110;6.050;2023-05-10T15:49:21;17.20;99.90
37412;DHT22;23278;52.110;6.050;2023-05-10T15:51:47;17.00;99.90
37412;DHT22;23278;52.110;6.050;2023-05-10T15:54:13;16.90;99.90
37412;DHT22;23278;52.110;6.050;2023-05-10T15:56:39;16.90;99.90
37412;DHT22;23278;52.110;6.050;2023-05-10T15:59:06;16.80;99.90